sensor_id;sensor_type;location;lat;lon;timestamp;pressure;altitude;pressure_sealevel;temperature;humidity
83512;BME280;73446;0.000;0.000;2023-10-31T00:02:16;97216.50;;;19.77;47.76
83512;BME280;73446;0.000;0.000;2023-10-31T00:05:00;97218.38;;;19.77;47.76
83512;BME280;73446;0.000;0.000;2023-10-31T00:07:44;97234.38;;;19.77;47.66
83512;BME280;73446;0.000;0.000;2023-10-31T00:10:28;97238.63;;;19.78;47.59
83512;BME280;73446;0.000;0.000;2023-10-31T00:13:13;97246.63;;;19.78;47.46
83512;BME280;73446;0.000;0.000;2023-10-31T00:15:57;97246.63;;;19.78;47.50
83512;BME280;73446;0.000;0.000;2023-10-31T00:18:41;97246.91;;;19.76;47.57
83512;BME280;73446;0.000;0.000;2023-10-31T00:21:25;97250.69;;;19.75;47.50
83512;BME280;73446;0.000;0.000;2023-10-31T00:24:09;97250.69;;;19.75;47.40
83512;BME280;73446;0.000;0.000;2023-10-31T00:26:53;97249.59;;;19.76;47.45
83512;BME280;73446;0.000;0.000;2023-10-31T00:29:37;97248.00;;;19.75;47.44
83512;BME280;73446;0.000;0.000;2023-10-31T00:32:21;97258.66;;;19.75;47.50
83512;BME280;73446;0.000;0.000;2023-10-31T00:35:06;97263.22;;;19.75;47.18
83512;BME280;73446;0.000;0.000;2023-10-31T00:37:50;97254.44;;;19.74;47.26
83512;BME280;73446;0.000;0.000;2023-10-31T00:40:34;97258.66;;;19.75;46.99
83512;BME280;73446;0.000;0.000;2023-10-31T00:43:18;97255.22;;;19.75;47.17
83512;BME280;73446;0.000;0.000;2023-10-31T00:46:03;97250.19;;;19.73;47.12
83512;BME280;73446;0.000;0.000;2023-10-31T00:48:47;97257.41;;;19.73;47.04
83512;BME280;73446;0.000;0.000;2023-10-31T00:51:32;97247.53;;;19.73;47.30
83512;BME280;73446;0.000;0.000;2023-10-31T00:54:16;97250.97;;;19.74;47.13
83512;BME280;73446;0.000;0.000;2023-10-31T00:57:00;97250.50;;;19.72;47.14
83512;BME280;73446;0.000;0.000;2023-10-31T00:59:43;97252.38;;;19.71;47.06
83512;BME280;73446;0.000;0.000;2023-10-31T01:02:27;97252.38;;;19.71;46.90
83512;BME280;73446;0.000;0.000;2023-10-31T01:05:11;97258.50;;;19.72;47.07
83512;BME280;73446;0.000;0.000;2023-10-31T01:07:55;97255.03;;;19.71;46.89
83512;BME280;73446;0.000;0.000;2023-10-31T01:10:40;97259.59;;;19.71;47.13
83512;BME280;73446;0.000;0.000;2023-10-31T01:13:23;97263.03;;;19.71;47.01
83512;BME280;73446;0.000;0.000;2023-10-31T01:16:07;97252.69;;;19.70;46.92
83512;BME280;73446;0.000;0.000;2023-10-31T01:18:51;97260.38;;;19.71;46.90
83512;BME280;73446;0.000;0.000;2023-10-31T01:21:35;97267.28;;;19.72;46.90
83512;BME280;73446;0.000;0.000;2023-10-31T01:24:20;97271.03;;;19.71;47.05
83512;BME280;73446;0.000;0.000;2023-10-31T01:27:04;97265.72;;;19.71;46.66
83512;BME280;73446;0.000;0.000;2023-10-31T01:29:48;97267.88;;;19.69;46.61
83512;BME280;73446;0.000;0.000;2023-10-31T01:32:32;97262.56;;;19.69;46.61
83512;BME280;73446;0.000;0.000;2023-10-31T01:35:15;97258.81;;;19.70;46.75
83512;BME280;73446;0.000;0.000;2023-10-31T01:37:59;97255.66;;;19.68;46.75
83512;BME280;73446;0.000;0.000;2023-10-31T01:40:44;97258.31;;;19.68;46.55
83512;BME280;73446;0.000;0.000;2023-10-31T01:46:15;97275.09;;;19.69;46.81
83512;BME280;73446;0.000;0.000;2023-10-31T01:48:59;97288.41;;;19.69;46.47
83512;BME280;73446;0.000;0.000;2023-10-31T01:51:44;97297.50;;;19.68;46.67
83512;BME280;73446;0.000;0.000;2023-10-31T01:54:29;97309.75;;;19.69;46.50
83512;BME280;73446;0.000;0.000;2023-10-31T01:57:13;97307.06;;;19.69;46.49
83512;BME280;73446;0.000;0.000;2023-10-31T01:59:58;97304.41;;;19.69;46.57
83512;BME280;73446;0.000;0.000;2023-10-31T02:02:43;97305.50;;;19.68;46.34
83512;BME280;73446;0.000;0.000;2023-10-31T02:05:27;97306.59;;;19.67;46.43
83512;BME280;73446;0.000;0.000;2023-10-31T02:08:12;97310.03;;;19.67;46.58
83512;BME280;73446;0.000;0.000;2023-10-31T02:10:56;97307.69;;;19.66;46.41
83512;BME280;73446;0.000;0.000;2023-10-31T02:13:40;97308.47;;;19.66;46.31
83512;BME280;73446;0.000;0.000;2023-10-31T02:16:24;97297.81;;;19.66;46.28
83512;BME280;73446;0.000;0.000;2023-10-31T02:19:10;97316.78;;;19.65;46.09
83512;BME280;73446;0.000;0.000;2023-10-31T02:21:55;97321.78;;;19.66;46.35
83512;BME280;73446;0.000;0.000;2023-10-31T02:24:39;97337.78;;;19.66;46.26
83512;BME280;73446;0.000;0.000;2023-10-31T02:27:24;97337.78;;;19.66;46.27
83512;BME280;73446;0.000;0.000;2023-10-31T02:30:08;97339.66;;;19.66;46.20
83512;BME280;73446;0.000;0.000;2023-10-31T02:32:52;97341.53;;;19.65;46.18
83512;BME280;73446;0.000;0.000;2023-10-31T02:35:36;97338.88;;;19.65;45.99
83512;BME280;73446;0.000;0.000;2023-10-31T02:38:20;97345.31;;;19.64;46.10
83512;BME280;73446;0.000;0.000;2023-10-31T02:41:04;97335.44;;;19.65;46.01
83512;BME280;73446;0.000;0.000;2023-10-31T02:43:49;97346.88;;;19.65;45.96
83512;BME280;73446;0.000;0.000;2023-10-31T02:46:37;97342.66;;;19.64;45.71
83512;BME280;73446;0.000;0.000;2023-10-31T02:49:21;97347.22;;;19.64;45.80
83512;BME280;73446;0.000;0.000;2023-10-31T02:52:05;97346.41;;;19.63;45.98
83512;BME280;73446;0.000;0.000;2023-10-31T02:54:50;97347.50;;;19.62;45.71
83512;BME280;73446;0.000;0.000;2023-10-31T02:57:34;97349.09;;;19.63;45.71
83512;BME280;73446;0.000;0.000;2023-10-31T03:00:18;97366.66;;;19.64;45.72
83512;BME280;73446;0.000;0.000;2023-10-31T03:03:03;97371.97;;;19.64;45.66
83512;BME280;73446;0.000;0.000;2023-10-31T03:05:46;97371.50;;;19.62;45.84
83512;BME280;73446;0.000;0.000;2023-10-31T03:08:30;97374.94;;;19.63;45.52
83512;BME280;73446;0.000;0.000;2023-10-31T03:11:24;97382.16;;;19.62;45.58
83512;BME280;73446;0.000;0.000;2023-10-31T03:14:08;97384.81;;;19.62;45.64
83512;BME280;73446;0.000;0.000;2023-10-31T03:16:52;97374.16;;;19.62;45.31
83512;BME280;73446;0.000;0.000;2023-10-31T03:19:36;97378.69;;;19.62;45.53
83512;BME280;73446;0.000;0.000;2023-10-31T03:22:20;97383.25;;;19.61;45.35
83512;BME280;73446;0.000;0.000;2023-10-31T03:25:04;97383.25;;;19.61;45.49
83512;BME280;73446;0.000;0.000;2023-10-31T03:27:48;97387.78;;;19.61;45.31
83512;BME280;73446;0.000;0.000;2023-10-31T03:30:33;97380.56;;;19.61;45.39
83512;BME280;73446;0.000;0.000;2023-10-31T03:33:17;97388.09;;;19.59;45.40
83512;BME280;73446;0.000;0.000;2023-10-31T03:36:01;97390.75;;;19.59;45.34
83512;BME280;73446;0.000;0.000;2023-10-31T03:38:45;97388.09;;;19.59;45.15
83512;BME280;73446;0.000;0.000;2023-10-31T03:41:30;97392.31;;;19.60;45.14
83512;BME280;73446;0.000;0.000;2023-10-31T03:44:14;97398.75;;;19.59;45.41
83512;BME280;73446;0.000;0.000;2023-10-31T03:46:57;97390.75;;;19.59;45.06
83512;BME280;73446;0.000;0.000;2023-10-31T03:49:42;97395.00;;;19.60;45.14
83512;BME280;73446;0.000;0.000;2023-10-31T03:52:26;97396.06;;;19.59;45.06
83512;BME280;73446;0.000;0.000;2023-10-31T03:55:13;97403.28;;;19.59;45.06
83512;BME280;73446;0.000;0.000;2023-10-31T03:57:57;97412.06;;;19.59;44.97
83512;BME280;73446;0.000;0.000;2023-10-31T04:00:41;97412.38;;;19.58;44.82
83512;BME280;73446;0.000;0.000;2023-10-31T04:03:25;97414.25;;;19.57;45.01
83512;BME280;73446;0.000;0.000;2023-10-31T04:06:09;97423.03;;;19.58;45.09
83512;BME280;73446;0.000;0.000;2023-10-31T04:08:53;97418.47;;;19.58;44.93
83512;BME280;73446;0.000;0.000;2023-10-31T04:11:38;97421.16;;;19.58;44.97
83512;BME280;73446;0.000;0.000;2023-10-31T04:14:22;97424.91;;;19.57;44.94
83512;BME280;73446;0.000;0.000;2023-10-31T04:17:06;97432.91;;;19.57;44.93
83512;BME280;73446;0.000;0.000;2023-10-31T04:19:50;97433.19;;;19.55;44.84
83512;BME280;73446;0.000;0.000;2023-10-31T04:22:34;97418.00;;;19.56;45.02
83512;BME280;73446;0.000;0.000;2023-10-31T04:25:18;97428.66;;;19.56;45.12
83512;BME280;73446;0.000;0.000;2023-10-31T04:28:03;97432.09;;;19.56;45.09
83512;BME280;73446;0.000;0.000;2023-10-31T04:30:47;97428.66;;;19.56;45.03
83512;BME280;73446;0.000;0.000;2023-10-31T04:33:31;97433.97;;;19.56;44.96
83512;BME280;73446;0.000;0.000;2023-10-31T04:36:15;97429.75;;;19.55;44.84
83512;BME280;73446;0.000;0.000;2023-10-31T04:38:59;97426.28;;;19.54;44.92
83512;BME280;73446;0.000;0.000;2023-10-31T04:41:43;97422.53;;;19.55;44.97
83512;BME280;73446;0.000;0.000;2023-10-31T04:44:27;97430.84;;;19.54;44.80
83512;BME280;73446;0.000;0.000;2023-10-31T04:47:11;97430.03;;;19.53;44.81
83512;BME280;73446;0.000;0.000;2023-10-31T04:49:55;97422.84;;;19.54;44.74
83512;BME280;73446;0.000;0.000;2023-10-31T04:52:39;97420.19;;;19.54;44.69
83512;BME280;73446;0.000;0.000;2023-10-31T04:55:22;97421.25;;;19.53;44.71
83512;BME280;73446;0.000;0.000;2023-10-31T04:58:06;97417.03;;;19.52;44.61
83512;BME280;73446;0.000;0.000;2023-10-31T05:00:51;97419.38;;;19.53;44.52
83512;BME280;73446;0.000;0.000;2023-10-31T05:03:35;97423.13;;;19.52;44.71
83512;BME280;73446;0.000;0.000;2023-10-31T05:06:20;97427.69;;;19.52;44.47
83512;BME280;73446;0.000;0.000;2023-10-31T05:09:04;97421.88;;;19.50;44.49
83512;BME280;73446;0.000;0.000;2023-10-31T05:11:48;97434.88;;;19.51;44.56
83512;BME280;73446;0.000;0.000;2023-10-31T05:14:32;97438.34;;;19.52;44.58
83512;BME280;73446;0.000;0.000;2023-10-31T05:17:16;97422.34;;;19.52;44.44
83512;BME280;73446;0.000;0.000;2023-10-31T05:20:00;97427.69;;;19.52;44.33
83512;BME280;73446;0.000;0.000;2023-10-31T05:22:44;97425.31;;;19.50;44.50
83512;BME280;73446;0.000;0.000;2023-10-31T05:25:27;97433.31;;;19.50;44.40
83512;BME280;73446;0.000;0.000;2023-10-31T05:28:11;97414.34;;;19.52;44.11
83512;BME280;73446;0.000;0.000;2023-10-31T05:30:55;97419.69;;;19.52;44.20
83512;BME280;73446;0.000;0.000;2023-10-31T05:33:40;97420.25;;;19.49;44.09
83512;BME280;73446;0.000;0.000;2023-10-31T05:36:25;97429.84;;;19.50;44.09
83512;BME280;73446;0.000;0.000;2023-10-31T05:39:09;97438.91;;;19.49;44.10
83512;BME280;73446;0.000;0.000;2023-10-31T05:41:53;97435.97;;;19.50;44.14
83512;BME280;73446;0.000;0.000;2023-10-31T05:44:37;97441.56;;;19.49;44.17
83512;BME280;73446;0.000;0.000;2023-10-31T05:47:21;97447.72;;;19.49;44.09
83512;BME280;73446;0.000;0.000;2023-10-31T05:50:06;97444.22;;;19.49;43.94
83512;BME280;73446;0.000;0.000;2023-10-31T05:52:50;97445.06;;;19.49;43.96
83512;BME280;73446;0.000;0.000;2023-10-31T05:55:33;97445.84;;;19.50;43.65
83512;BME280;73446;0.000;0.000;2023-10-31T05:58:19;97449.56;;;19.49;43.79
83512;BME280;73446;0.000;0.000;2023-10-31T06:01:03;97451.44;;;19.48;43.96
83512;BME280;73446;0.000;0.000;2023-10-31T06:03:47;97459.44;;;19.48;44.08
83512;BME280;73446;0.000;0.000;2023-10-31T06:06:37;97451.44;;;19.48;43.78
83512;BME280;73446;0.000;0.000;2023-10-31T06:09:21;97457.09;;;19.47;43.97
83512;BME280;73446;0.000;0.000;2023-10-31T06:12:05;97460.84;;;19.46;43.97
83512;BME280;73446;0.000;0.000;2023-10-31T06:14:49;97459.75;;;19.47;43.76
83512;BME280;73446;0.000;0.000;2023-10-31T06:17:35;97470.88;;;19.49;43.83
83512;BME280;73446;0.000;0.000;2023-10-31T06:20:19;97476.84;;;19.46;44.05
83512;BME280;73446;0.000;0.000;2023-10-31T06:23:03;97485.63;;;19.46;44.04
83512;BME280;73446;0.000;0.000;2023-10-31T06:25:47;97488.28;;;19.46;43.94
83512;BME280;73446;0.000;0.000;2023-10-31T06:28:31;97497.84;;;19.47;43.86
83512;BME280;73446;0.000;0.000;2023-10-31T06:31:18;97493.59;;;19.46;43.70
83512;BME280;73446;0.000;0.000;2023-10-31T06:34:02;97498.16;;;19.46;43.69
83512;BME280;73446;0.000;0.000;2023-10-31T06:36:46;97492.81;;;19.46;43.77
83512;BME280;73446;0.000;0.000;2023-10-31T06:39:30;97506.13;;;19.46;43.88
83512;BME280;73446;0.000;0.000;2023-10-31T06:42:14;97517.88;;;19.45;43.64
83512;BME280;73446;0.000;0.000;2023-10-31T06:44:59;97513.34;;;19.45;43.78
83512;BME280;73446;0.000;0.000;2023-10-31T06:47:42;97525.88;;;19.45;43.71
83512;BME280;73446;0.000;0.000;2023-10-31T06:50:27;97525.09;;;19.44;43.64
83512;BME280;73446;0.000;0.000;2023-10-31T06:53:11;97527.75;;;19.44;43.70
83512;BME280;73446;0.000;0.000;2023-10-31T06:55:55;97543.44;;;19.46;43.83
83512;BME280;73446;0.000;0.000;2023-10-31T06:58:40;97551.44;;;19.46;43.82
83512;BME280;73446;0.000;0.000;2023-10-31T07:01:24;97545.31;;;19.45;43.69
83512;BME280;73446;0.000;0.000;2023-10-31T07:04:08;97560.50;;;19.45;43.88
83512;BME280;73446;0.000;0.000;2023-10-31T07:06:52;97553.31;;;19.45;43.78
83512;BME280;73446;0.000;0.000;2023-10-31T07:09:41;97560.50;;;19.45;43.77
83512;BME280;73446;0.000;0.000;2023-10-31T07:12:24;97561.59;;;19.44;43.97
83512;BME280;73446;0.000;0.000;2023-10-31T07:15:09;97565.06;;;19.44;43.73
83512;BME280;73446;0.000;0.000;2023-10-31T07:17:53;97566.13;;;19.43;43.98
83512;BME280;73446;0.000;0.000;2023-10-31T07:20:37;97579.16;;;19.45;43.89
83512;BME280;73446;0.000;0.000;2023-10-31T07:23:21;97580.25;;;19.44;43.79
83512;BME280;73446;0.000;0.000;2023-10-31T07:26:05;97577.59;;;19.44;43.95
83512;BME280;73446;0.000;0.000;2023-10-31T07:28:49;97569.59;;;19.44;43.92
83512;BME280;73446;0.000;0.000;2023-10-31T07:31:34;97580.25;;;19.44;43.89
83512;BME280;73446;0.000;0.000;2023-10-31T07:34:22;97584.50;;;19.45;43.80
83512;BME280;73446;0.000;0.000;2023-10-31T07:37:06;97578.66;;;19.43;43.83
83512;BME280;73446;0.000;0.000;2023-10-31T07:39:50;97576.78;;;19.43;44.04
83512;BME280;73446;0.000;0.000;2023-10-31T07:42:35;97581.81;;;19.45;43.90
83512;BME280;73446;0.000;0.000;2023-10-31T07:45:19;97585.56;;;19.44;43.87
83512;BME280;73446;0.000;0.000;2023-10-31T07:48:04;97592.47;;;19.45;43.99
83512;BME280;73446;0.000;0.000;2023-10-31T07:50:48;97597.81;;;19.45;43.79
83512;BME280;73446;0.000;0.000;2023-10-31T07:53:32;97587.94;;;19.45;43.71
83512;BME280;73446;0.000;0.000;2023-10-31T07:56:17;97589.81;;;19.45;43.77
83512;BME280;73446;0.000;0.000;2023-10-31T07:59:02;97588.72;;;19.46;43.89
83512;BME280;73446;0.000;0.000;2023-10-31T08:01:46;97591.41;;;19.46;43.96
83512;BME280;73446;0.000;0.000;2023-10-31T08:04:31;97607.09;;;19.47;43.83
83512;BME280;73446;0.000;0.000;2023-10-31T08:07:16;97607.88;;;19.48;43.69
83512;BME280;73446;0.000;0.000;2023-10-31T08:10:00;97616.63;;;19.48;43.72
83512;BME280;73446;0.000;0.000;2023-10-31T08:12:46;97612.91;;;19.49;43.74
83512;BME280;73446;0.000;0.000;2023-10-31T08:15:30;97614.75;;;19.49;43.78
83512;BME280;73446;0.000;0.000;2023-10-31T08:18:14;97618.72;;;19.51;43.57
83512;BME280;73446;0.000;0.000;2023-10-31T08:20:58;97624.84;;;19.52;43.40
83512;BME280;73446;0.000;0.000;2023-10-31T08:23:42;97633.84;;;19.56;43.29
83512;BME280;73446;0.000;0.000;2023-10-31T08:26:28;97646.38;;;19.55;43.74
83512;BME280;73446;0.000;0.000;2023-10-31T08:29:12;97647.16;;;19.56;43.64
83512;BME280;73446;0.000;0.000;2023-10-31T08:31:56;97645.78;;;19.59;43.53
83512;BME280;73446;0.000;0.000;2023-10-31T08:34:41;97651.59;;;19.61;43.44
83512;BME280;73446;0.000;0.000;2023-10-31T08:37:25;97652.09;;;19.63;43.63
83512;BME280;73446;0.000;0.000;2023-10-31T08:40:09;97654.94;;;19.66;43.38
83512;BME280;73446;0.000;0.000;2023-10-31T08:42:54;97652.75;;;19.68;43.43
83512;BME280;73446;0.000;0.000;2023-10-31T08:45:39;97658.59;;;19.70;43.57
83512;BME280;73446;0.000;0.000;2023-10-31T08:48:22;97660.16;;;19.71;43.63
83512;BME280;73446;0.000;0.000;2023-10-31T08:51:06;97656.41;;;19.72;43.83
83512;BME280;73446;0.000;0.000;2023-10-31T08:53:50;97665.50;;;19.71;43.78
83512;BME280;73446;0.000;0.000;2023-10-31T08:56:34;97668.94;;;19.72;44.01
83512;BME280;73446;0.000;0.000;2023-10-31T08:59:18;97665.50;;;19.71;43.88
83512;BME280;73446;0.000;0.000;2023-10-31T09:02:02;97669.25;;;19.70;44.28
83512;BME280;73446;0.000;0.000;2023-10-31T09:04:47;97672.41;;;19.72;43.95
83512;BME280;73446;0.000;0.000;2023-10-31T09:07:30;97668.66;;;19.73;44.00
83512;BME280;73446;0.000;0.000;2023-10-31T09:10:15;97664.91;;;19.74;44.17
83512;BME280;73446;0.000;0.000;2023-10-31T09:12:59;97671.81;;;19.75;44.12
83512;BME280;73446;0.000;0.000;2023-10-31T09:15:43;97657.69;;;19.75;44.19
83512;BME280;73446;0.000;0.000;2023-10-31T09:18:29;97670.22;;;19.74;44.26
83512;BME280;73446;0.000;0.000;2023-10-31T09:21:13;97667.56;;;19.74;44.55
83512;BME280;73446;0.000;0.000;2023-10-31T09:23:57;97675.56;;;19.74;44.21
83512;BME280;73446;0.000;0.000;2023-10-31T09:26:42;97675.56;;;19.74;44.10
83512;BME280;73446;0.000;0.000;2023-10-31T09:29:27;97671.81;;;19.75;44.12
83512;BME280;73446;0.000;0.000;2023-10-31T09:32:11;97668.84;;;19.77;43.76
83512;BME280;73446;0.000;0.000;2023-10-31T09:34:55;97680.59;;;19.76;44.09
83512;BME280;73446;0.000;0.000;2023-10-31T09:37:40;97683.25;;;19.76;44.11
83512;BME280;73446;0.000;0.000;2023-10-31T09:40:25;97684.84;;;19.77;43.98
83512;BME280;73446;0.000;0.000;2023-10-31T09:43:09;97685.63;;;19.77;44.17
83512;BME280;73446;0.000;0.000;2023-10-31T09:45:53;97687.22;;;19.78;43.82
83512;BME280;73446;0.000;0.000;2023-10-31T09:48:37;97693.63;;;19.77;44.16
83512;BME280;73446;0.000;0.000;2023-10-31T09:51:21;97699.75;;;19.78;44.00
83512;BME280;73446;0.000;0.000;2023-10-31T09:54:06;97692.56;;;19.78;43.96
83512;BME280;73446;0.000;0.000;2023-10-31T09:56:51;97699.47;;;19.79;43.83
83512;BME280;73446;0.000;0.000;2023-10-31T09:59:35;97688.78;;;19.79;44.07
83512;BME280;73446;0.000;0.000;2023-10-31T10:02:20;97690.38;;;19.80;43.96
83512;BME280;73446;0.000;0.000;2023-10-31T10:05:04;97695.72;;;19.80;43.88
83512;BME280;73446;0.000;0.000;2023-10-31T10:07:48;97704.47;;;19.81;44.12
83512;BME280;73446;0.000;0.000;2023-10-31T10:10:35;97694.28;;;19.83;43.92
83512;BME280;73446;0.000;0.000;2023-10-31T10:13:20;97693.22;;;19.84;43.80
83512;BME280;73446;0.000;0.000;2023-10-31T10:16:05;97698.53;;;19.84;43.85
83512;BME280;73446;0.000;0.000;2023-10-31T10:18:49;97695.09;;;19.83;44.05
83512;BME280;73446;0.000;0.000;2023-10-31T10:21:49;97684.72;;;19.82;44.02
83512;BME280;73446;0.000;0.000;2023-10-31T10:24:33;97695.09;;;19.83;43.71
83512;BME280;73446;0.000;0.000;2023-10-31T10:27:19;97695.09;;;19.83;43.92
83512;BME280;73446;0.000;0.000;2023-10-31T10:30:04;97694.00;;;19.84;43.70
83512;BME280;73446;0.000;0.000;2023-10-31T10:32:49;97700.63;;;19.87;43.83
83512;BME280;73446;0.000;0.000;2023-10-31T10:35:35;97694.50;;;19.86;43.92
83512;BME280;73446;0.000;0.000;2023-10-31T10:38:19;97699.03;;;19.86;43.93
83512;BME280;73446;0.000;0.000;2023-10-31T10:41:04;97701.69;;;19.86;43.54
83512;BME280;73446;0.000;0.000;2023-10-31T10:43:55;97688.38;;;19.86;43.98
83512;BME280;73446;0.000;0.000;2023-10-31T10:46:39;97692.91;;;19.85;43.84
83512;BME280;73446;0.000;0.000;2023-10-31T10:49:25;97685.41;;;19.87;43.85
83512;BME280;73446;0.000;0.000;2023-10-31T10:52:22;97683.53;;;19.88;43.75
83512;BME280;73446;0.000;0.000;2023-10-31T10:55:13;97692.31;;;19.88;43.73
83512;BME280;73446;0.000;0.000;2023-10-31T10:58:08;97695.00;;;19.88;43.87
83512;BME280;73446;0.000;0.000;2023-10-31T11:00:57;97691.25;;;19.89;43.77
83512;BME280;73446;0.000;0.000;2023-10-31T11:03:42;97694.69;;;19.90;43.71
83512;BME280;73446;0.000;0.000;2023-10-31T11:06:27;97693.91;;;19.89;43.70
83512;BME280;73446;0.000;0.000;2023-10-31T11:09:11;97693.91;;;19.89;43.58
83512;BME280;73446;0.000;0.000;2023-10-31T11:11:57;97708.31;;;19.88;43.68
83512;BME280;73446;0.000;0.000;2023-10-31T11:14:42;97708.31;;;19.88;43.80
83512;BME280;73446;0.000;0.000;2023-10-31T11:17:33;97703.78;;;19.89;43.95
83512;BME280;73446;0.000;0.000;2023-10-31T11:20:19;97695.47;;;19.90;43.77
83512;BME280;73446;0.000;0.000;2023-10-31T11:23:03;97699.44;;;19.93;43.70
83512;BME280;73446;0.000;0.000;2023-10-31T11:25:50;97697.84;;;19.92;44.00
83512;BME280;73446;0.000;0.000;2023-10-31T11:28:37;97700.81;;;19.90;43.90
83512;BME280;73446;0.000;0.000;2023-10-31T11:31:21;97707.22;;;19.89;43.92
83512;BME280;73446;0.000;0.000;2023-10-31T11:34:05;97701.91;;;19.89;43.89
83512;BME280;73446;0.000;0.000;2023-10-31T11:36:50;97713.66;;;19.88;43.89
83512;BME280;73446;0.000;0.000;2023-10-31T11:39:34;97713.66;;;19.88;44.00
83512;BME280;73446;0.000;0.000;2023-10-31T11:42:20;97714.16;;;19.90;44.05
83512;BME280;73446;0.000;0.000;2023-10-31T11:45:04;97716.81;;;19.90;43.77
83512;BME280;73446;0.000;0.000;2023-10-31T11:47:51;97714.16;;;19.90;43.83
83512;BME280;73446;0.000;0.000;2023-10-31T11:50:36;97720.28;;;19.91;44.16
83512;BME280;73446;0.000;0.000;2023-10-31T11:53:20;97729.84;;;19.92;44.12
83512;BME280;73446;0.000;0.000;2023-10-31T11:56:06;97723.72;;;19.91;44.02
83512;BME280;73446;0.000;0.000;2023-10-31T11:59:03;97735.47;;;19.90;44.32
83512;BME280;73446;0.000;0.000;2023-10-31T12:01:47;97735.97;;;19.92;44.06
83512;BME280;73446;0.000;0.000;2023-10-31T12:04:31;97741.31;;;19.92;43.97
83512;BME280;73446;0.000;0.000;2023-10-31T12:07:15;97749.31;;;19.92;44.10
83512;BME280;73446;0.000;0.000;2023-10-31T12:09:59;97747.72;;;19.91;44.02
83512;BME280;73446;0.000;0.000;2023-10-31T12:12:43;97746.63;;;19.92;43.86
83512;BME280;73446;0.000;0.000;2023-10-31T12:15:28;97751.69;;;19.94;43.68
83512;BME280;73446;0.000;0.000;2023-10-31T12:18:12;97757.00;;;19.94;43.86
83512;BME280;73446;0.000;0.000;2023-10-31T12:20:56;97756.22;;;19.94;43.91
83512;BME280;73446;0.000;0.000;2023-10-31T12:23:40;97755.44;;;19.93;43.90
83512;BME280;73446;0.000;0.000;2023-10-31T12:26:26;97762.63;;;19.92;43.98
83512;BME280;73446;0.000;0.000;2023-10-31T12:29:16;97764.22;;;19.94;44.01
83512;BME280;73446;0.000;0.000;2023-10-31T12:32:01;97761.25;;;19.95;44.00
83512;BME280;73446;0.000;0.000;2023-10-31T12:34:44;97760.97;;;19.97;43.78
83512;BME280;73446;0.000;0.000;2023-10-31T12:37:29;97759.38;;;19.96;43.79
83512;BME280;73446;0.000;0.000;2023-10-31T12:40:18;97755.94;;;19.95;44.01
83512;BME280;73446;0.000;0.000;2023-10-31T12:43:03;97751.69;;;19.94;43.75
83512;BME280;73446;0.000;0.000;2023-10-31T12:45:47;97752.47;;;19.95;44.09
83512;BME280;73446;0.000;0.000;2023-10-31T12:48:31;97756.22;;;19.94;44.10
83512;BME280;73446;0.000;0.000;2023-10-31T12:51:16;97763.13;;;19.95;44.22
83512;BME280;73446;0.000;0.000;2023-10-31T12:54:00;97757.81;;;19.95;44.08
83512;BME280;73446;0.000;0.000;2023-10-31T12:56:44;97757.00;;;19.94;44.11
83512;BME280;73446;0.000;0.000;2023-10-31T12:59:28;97767.69;;;19.94;44.20
83512;BME280;73446;0.000;0.000;2023-10-31T13:02:16;97774.09;;;19.93;44.25
83512;BME280;73446;0.000;0.000;2023-10-31T13:05:15;97772.22;;;19.94;44.45
83512;BME280;73446;0.000;0.000;2023-10-31T13:08:02;97771.44;;;19.93;44.27
83512;BME280;73446;0.000;0.000;2023-10-31T13:10:49;97765.81;;;19.95;44.25
83512;BME280;73446;0.000;0.000;2023-10-31T13:13:33;97761.56;;;19.94;43.91
83512;BME280;73446;0.000;0.000;2023-10-31T13:16:17;97764.72;;;19.96;44.26
83512;BME280;73446;0.000;0.000;2023-10-31T13:19:01;97768.47;;;19.95;44.20
83512;BME280;73446;0.000;0.000;2023-10-31T13:21:44;97771.72;;;19.91;44.40
83512;BME280;73446;0.000;0.000;2023-10-31T13:24:29;97776.25;;;19.91;44.24
83512;BME280;73446;0.000;0.000;2023-10-31T13:27:12;97774.38;;;19.91;44.30
83512;BME280;73446;0.000;0.000;2023-10-31T13:30:04;97778.13;;;19.90;44.45
83512;BME280;73446;0.000;0.000;2023-10-31T13:32:48;97784.56;;;19.89;44.41
83512;BME280;73446;0.000;0.000;2023-10-31T13:35:32;97783.47;;;19.90;44.64
83512;BME280;73446;0.000;0.000;2023-10-31T13:38:17;97780.81;;;19.90;44.40
83512;BME280;73446;0.000;0.000;2023-10-31T13:41:02;97787.72;;;19.91;44.48
83512;BME280;73446;0.000;0.000;2023-10-31T13:43:46;97790.69;;;19.90;44.46
83512;BME280;73446;0.000;0.000;2023-10-31T13:46:31;97795.72;;;19.91;44.40
83512;BME280;73446;0.000;0.000;2023-10-31T13:49:16;97797.59;;;19.91;44.54
83512;BME280;73446;0.000;0.000;2023-10-31T13:52:00;97796.81;;;19.90;44.56
83512;BME280;73446;0.000;0.000;2023-10-31T13:54:44;97806.69;;;19.90;44.61
83512;BME280;73446;0.000;0.000;2023-10-31T13:57:28;97809.06;;;19.91;44.63
83512;BME280;73446;0.000;0.000;2023-10-31T14:00:12;97820.31;;;19.88;44.78
83512;BME280;73446;0.000;0.000;2023-10-31T14:02:56;97821.69;;;19.86;44.86
83512;BME280;73446;0.000;0.000;2023-10-31T14:05:40;97813.97;;;19.84;44.85
83512;BME280;73446;0.000;0.000;2023-10-31T14:08:26;97823.06;;;19.83;45.07
83512;BME280;73446;0.000;0.000;2023-10-31T14:11:10;97815.34;;;19.82;45.08
83512;BME280;73446;0.000;0.000;2023-10-31T14:13:54;97817.22;;;19.81;45.27
83512;BME280;73446;0.000;0.000;2023-10-31T14:16:38;97819.09;;;19.81;45.00
83512;BME280;73446;0.000;0.000;2023-10-31T14:19:22;97826.34;;;19.80;45.34
83512;BME280;73446;0.000;0.000;2023-10-31T14:22:07;97826.81;;;19.82;45.25
83512;BME280;73446;0.000;0.000;2023-10-31T14:24:51;97830.56;;;19.81;45.17
83512;BME280;73446;0.000;0.000;2023-10-31T14:27:36;97824.44;;;19.81;45.20
83512;BME280;73446;0.000;0.000;2023-10-31T14:30:20;97826.34;;;19.80;45.15
83512;BME280;73446;0.000;0.000;2023-10-31T14:33:04;97831.16;;;19.78;45.36
83512;BME280;73446;0.000;0.000;2023-10-31T14:35:48;97829.59;;;19.77;45.49
83512;BME280;73446;0.000;0.000;2023-10-31T14:38:31;97830.66;;;19.76;45.55
83512;BME280;73446;0.000;0.000;2023-10-31T14:41:15;97846.66;;;19.76;45.49
83512;BME280;73446;0.000;0.000;2023-10-31T14:44:00;97853.88;;;19.76;45.72
83512;BME280;73446;0.000;0.000;2023-10-31T14:46:45;97844.28;;;19.75;45.65